sensor_id;sensor_type;location;lat;lon;timestamp;temperature;humidity
59075;DHT22;44860;53.020;6.738;2023-05-10T00:01:23;14.10;99.90
59075;DHT22;44860;53.020;6.738;2023-05-10T00:03:49;14.10;99.90
59075;DHT22;44860;53.020;6.738;2023-05-10T00:06:14;14.00;99.90
59075;DHT22;44860;53.020;6.738;2023-05-10T00:08:40;14.00;99.90
59075;DHT22;44860;53.020;6.738;2023-05-10T00:11:06;13.90;99.90
59075;DHT22;44860;53.020;6.738;2023-05-10T00:13:32;13.90;99.90
59075;DHT22;44860;53.020;6.738;2023-05-10T00:15:57;13.90;99.90
59075;DHT22;44860;53.020;6.738;2023-05-10T00:18:23;13.90;99.90
59075;DHT22;44860;53.020;6.738;2023-05-10T00:20:49;13.80;99.90
59075;DHT22;44860;53.020;6.738;2023-05-10T00:23:15;13.80;99.90
59075;DHT22;44860;53.020;6.738;2023-05-10T00:25:40;13.80;99.90
59075;DHT22;44860;53.020;6.738;2023-05-10T00:28:06;13.80;99.90
59075;DHT22;44860;53.020;6.738;2023-05-10T00:30:31;13.80;99.90
59075;DHT22;44860;53.020;6.738;2023-05-10T00:32:57;13.80;99.90
59075;DHT22;44860;53.020;6.738;2023-05-10T00:35:23;13.70;99.90
59075;DHT22;44860;53.020;6.738;2023-05-10T00:37:49;13.70;99.90
59075;DHT22;44860;53.020;6.738;2023-05-10T00:40:14;13.70;99.90
59075;DHT22;44860;53.020;6.738;2023-05-10T00:42:40;13.70;99.90
59075;DHT22;44860;53.020;6.738;2023-05-10T00:45:06;13.70;99.90
59075;DHT22;44860;53.020;6.738;2023-05-10T00:47:32;13.60;99.90
59075;DHT22;44860;53.020;6.738;2023-05-10T00:49:59;13.60;99.90
59075;DHT22;44860;53.020;6.738;2023-05-10T00:52:27;13.60;99.90
59075;DHT22;44860;53.020;6.738;2023-05-10T00:54:52;13.60;99.90
59075;DHT22;44860;53.020;6.738;2023-05-10T00:57:19;13.60;99.90
59075;DHT22;44860;53.020;6.738;2023-05-10T00:59:45;13.60;99.90
59075;DHT22;44860;53.020;6.738;2023-05-10T01:02:11;13.60;99.90
59075;DHT22;44860;53.020;6.738;2023-05-10T01:04:37;13.60;99.90
59075;DHT22;44860;53.020;6.738;2023-05-10T01:07:03;13.50;99.90
59075;DHT22;44860;53.020;6.738;2023-05-10T01:09:29;13.50;99.90
59075;DHT22;44860;53.020;6.738;2023-05-10T01:11:55;13.50;99.90
59075;DHT22;44860;53.020;6.738;2023-05-10T01:14:21;13.50;99.90
59075;DHT22;44860;53.020;6.738;2023-05-10T01:16:48;13.50;99.90
59075;DHT22;44860;53.020;6.738;2023-05-10T01:19:23;13.50;99.90
59075;DHT22;44860;53.020;6.738;2023-05-10T01:39:01;13.50;99.90
59075;DHT22;44860;53.020;6.738;2023-05-10T01:42:08;13.40;99.90
59075;DHT22;44860;53.020;6.738;2023-05-10T01:44:49;13.40;99.90
59075;DHT22;44860;53.020;6.738;2023-05-10T01:49:54;13.40;99.90
59075;DHT22;44860;53.020;6.738;2023-05-10T01:52:33;13.40;99.90
59075;DHT22;44860;53.020;6.738;2023-05-10T01:55:04;13.40;99.90
59075;DHT22;44860;53.020;6.738;2023-05-10T01:57:34;13.40;99.90
59075;DHT22;44860;53.020;6.738;2023-05-10T02:00:02;13.30;99.90
59075;DHT22;44860;53.020;6.738;2023-05-10T02:02:30;13.40;99.90
59075;DHT22;44860;53.020;6.738;2023-05-10T02:04:59;13.30;99.90
59075;DHT22;44860;53.020;6.738;2023-05-10T02:07:26;13.40;99.90
59075;DHT22;44860;53.020;6.738;2023-05-10T02:09:54;13.30;99.90
59075;DHT22;44860;53.020;6.738;2023-05-10T02:12:20;13.30;99.90
59075;DHT22;44860;53.020;6.738;2023-05-10T02:14:47;13.30;99.90
59075;DHT22;44860;53.020;6.738;2023-05-10T02:17:13;13.30;99.90
59075;DHT22;44860;53.020;6.738;2023-05-10T02:19:43;13.30;99.90
59075;DHT22;44860;53.020;6.738;2023-05-10T02:22:11;13.30;99.90
59075;DHT22;44860;53.020;6.738;2023-05-10T02:24:37;13.30;99.90
59075;DHT22;44860;53.020;6.738;2023-05-10T02:27:04;13.30;99.90
59075;DHT22;44860;53.020;6.738;2023-05-10T02:29:32;13.30;99.90
59075;DHT22;44860;53.020;6.738;2023-05-10T02:31:58;13.20;99.90
59075;DHT22;44860;53.020;6.738;2023-05-10T02:34:28;13.30;99.90
59075;DHT22;44860;53.020;6.738;2023-05-10T02:36:55;13.30;99.90
59075;DHT22;44860;53.020;6.738;2023-05-10T02:39:22;13.30;99.90
59075;DHT22;44860;53.020;6.738;2023-05-10T02:41:49;13.30;99.90
59075;DHT22;44860;53.020;6.738;2023-05-10T02:44:18;13.20;99.90
59075;DHT22;44860;53.020;6.738;2023-05-10T02:46:45;13.20;99.90
59075;DHT22;44860;53.020;6.738;2023-05-10T02:49:11;13.20;99.90
59075;DHT22;44860;53.020;6.738;2023-05-10T02:51:40;13.20;99.90
59075;DHT22;44860;53.020;6.738;2023-05-10T02:54:11;13.20;99.90
59075;DHT22;44860;53.020;6.738;2023-05-10T02:56:43;13.20;99.90
59075;DHT22;44860;53.020;6.738;2023-05-10T02:59:12;13.20;99.90
59075;DHT22;44860;53.020;6.738;2023-05-10T03:01:38;13.20;99.90
59075;DHT22;44860;53.020;6.738;2023-05-10T03:04:04;13.20;99.90
59075;DHT22;44860;53.020;6.738;2023-05-10T03:06:29;13.20;99.90
59075;DHT22;44860;53.020;6.738;2023-05-10T03:08:55;13.20;99.90
59075;DHT22;44860;53.020;6.738;2023-05-10T03:16:56;13.20;99.90
59075;DHT22;44860;53.020;6.738;2023-05-10T03:19:48;13.20;99.90
59075;DHT22;44860;53.020;6.738;2023-05-10T03:22:13;13.20;99.90
59075;DHT22;44860;53.020;6.738;2023-05-10T03:24:45;13.20;99.90
59075;DHT22;44860;53.020;6.738;2023-05-10T03:27:13;13.20;99.90
59075;DHT22;44860;53.020;6.738;2023-05-10T03:29:39;13.10;99.90
59075;DHT22;44860;53.020;6.738;2023-05-10T03:32:05;13.10;99.90
59075;DHT22;44860;53.020;6.738;2023-05-10T03:34:31;13.10;99.90
59075;DHT22;44860;53.020;6.738;2023-05-10T03:36:57;13.10;99.90
59075;DHT22;44860;53.020;6.738;2023-05-10T03:39:22;13.10;99.90
59075;DHT22;44860;53.020;6.738;2023-05-10T03:41:48;13.10;99.90
59075;DHT22;44860;53.020;6.738;2023-05-10T03:44:16;13.10;99.90
59075;DHT22;44860;53.020;6.738;2023-05-10T03:46:44;13.10;99.90
59075;DHT22;44860;53.020;6.738;2023-05-10T03:49:10;13.10;99.90
59075;DHT22;44860;53.020;6.738;2023-05-10T03:51:36;13.10;99.90
59075;DHT22;44860;53.020;6.738;2023-05-10T03:54:02;13.10;99.90
59075;DHT22;44860;53.020;6.738;2023-05-10T03:56:27;13.10;99.90
59075;DHT22;44860;53.020;6.738;2023-05-10T03:58:53;13.10;99.90
59075;DHT22;44860;53.020;6.738;2023-05-10T04:01:18;13.10;99.90
59075;DHT22;44860;53.020;6.738;2023-05-10T04:03:44;13.10;99.90
59075;DHT22;44860;53.020;6.738;2023-05-10T04:06:10;13.10;99.90
59075;DHT22;44860;53.020;6.738;2023-05-10T04:08:37;13.10;99.90
59075;DHT22;44860;53.020;6.738;2023-05-10T04:11:10;13.10;99.90
59075;DHT22;44860;53.020;6.738;2023-05-10T04:13:37;13.00;99.90
59075;DHT22;44860;53.020;6.738;2023-05-10T04:16:03;13.00;99.90
59075;DHT22;44860;53.020;6.738;2023-05-10T04:18:30;13.00;99.90
59075;DHT22;44860;53.020;6.738;2023-05-10T04:20:55;13.00;99.90
59075;DHT22;44860;53.020;6.738;2023-05-10T04:23:21;13.00;99.90
59075;DHT22;44860;53.020;6.738;2023-05-10T04:25:47;13.00;99.90
59075;DHT22;44860;53.020;6.738;2023-05-10T04:28:12;13.00;99.90
59075;DHT22;44860;53.020;6.738;2023-05-10T04:30:38;13.00;99.90
59075;DHT22;44860;53.020;6.738;2023-05-10T04:33:04;13.00;99.90
59075;DHT22;44860;53.020;6.738;2023-05-10T04:35:29;13.00;99.90
59075;DHT22;44860;53.020;6.738;2023-05-10T04:37:55;13.00;99.90
59075;DHT22;44860;53.020;6.738;2023-05-10T04:40:21;13.00;99.90
59075;DHT22;44860;53.020;6.738;2023-05-10T04:42:47;13.00;99.90
59075;DHT22;44860;53.020;6.738;2023-05-10T04:45:13;13.00;99.90
59075;DHT22;44860;53.020;6.738;2023-05-10T04:47:40;13.00;99.90
59075;DHT22;44860;53.020;6.738;2023-05-10T04:50:06;13.00;99.90
59075;DHT22;44860;53.020;6.738;2023-05-10T04:52:32;12.90;99.90
59075;DHT22;44860;53.020;6.738;2023-05-10T04:54:58;12.90;99.90
59075;DHT22;44860;53.020;6.738;2023-05-10T04:57:24;12.90;99.90
59075;DHT22;44860;53.020;6.738;2023-05-10T04:59:49;12.90;99.90
59075;DHT22;44860;53.020;6.738;2023-05-10T05:02:15;12.90;99.90
59075;DHT22;44860;53.020;6.738;2023-05-10T05:04:41;12.90;99.90
59075;DHT22;44860;53.020;6.738;2023-05-10T05:07:06;12.90;99.90
59075;DHT22;44860;53.020;6.738;2023-05-10T05:09:32;12.90;99.90
59075;DHT22;44860;53.020;6.738;2023-05-10T05:11:58;13.00;99.90
59075;DHT22;44860;53.020;6.738;2023-05-10T05:14:23;12.90;99.90
59075;DHT22;44860;53.020;6.738;2023-05-10T05:16:53;12.90;99.90
59075;DHT22;44860;53.020;6.738;2023-05-10T05:19:19;12.90;99.90
59075;DHT22;44860;53.020;6.738;2023-05-10T05:21:44;12.90;99.90
59075;DHT22;44860;53.020;6.738;2023-05-10T05:24:10;12.90;99.90
59075;DHT22;44860;53.020;6.738;2023-05-10T05:26:38;12.90;99.90
59075;DHT22;44860;53.020;6.738;2023-05-10T05:29:04;12.90;99.90
59075;DHT22;44860;53.020;6.738;2023-05-10T05:31:29;12.90;99.90
59075;DHT22;44860;53.020;6.738;2023-05-10T05:33:55;12.90;99.90
59075;DHT22;44860;53.020;6.738;2023-05-10T05:36:21;12.90;99.90
59075;DHT22;44860;53.020;6.738;2023-05-10T05:38:47;12.90;99.90
59075;DHT22;44860;53.020;6.738;2023-05-10T05:41:13;12.90;99.90
59075;DHT22;44860;53.020;6.738;2023-05-10T05:43:38;12.90;99.90
59075;DHT22;44860;53.020;6.738;2023-05-10T05:46:05;12.90;99.90
59075;DHT22;44860;53.020;6.738;2023-05-10T05:48:31;12.90;99.90
59075;DHT22;44860;53.020;6.738;2023-05-10T05:50:57;12.90;99.90
59075;DHT22;44860;53.020;6.738;2023-05-10T05:53:23;12.80;99.90
59075;DHT22;44860;53.020;6.738;2023-05-10T05:55:57;12.80;99.90
59075;DHT22;44860;53.020;6.738;2023-05-10T05:58:23;12.90;99.90
59075;DHT22;44860;53.020;6.738;2023-05-10T06:00:50;12.80;99.90
59075;DHT22;44860;53.020;6.738;2023-05-10T06:03:17;12.90;99.90
59075;DHT22;44860;53.020;6.738;2023-05-10T06:05:43;12.80;99.90
59075;DHT22;44860;53.020;6.738;2023-05-10T06:08:09;12.80;99.90
59075;DHT22;44860;53.020;6.738;2023-05-10T06:10:35;12.80;99.90
59075;DHT22;44860;53.020;6.738;2023-05-10T06:13:01;12.90;99.90
59075;DHT22;44860;53.020;6.738;2023-05-10T06:15:27;12.80;99.90
59075;DHT22;44860;53.020;6.738;2023-05-10T06:17:53;12.80;99.90
59075;DHT22;44860;53.020;6.738;2023-05-10T06:20:18;12.90;99.90
59075;DHT22;44860;53.020;6.738;2023-05-10T06:22:44;12.80;99.90
59075;DHT22;44860;53.020;6.738;2023-05-10T06:25:10;12.80;99.90
59075;DHT22;44860;53.020;6.738;2023-05-10T06:27:37;12.80;99.90
59075;DHT22;44860;53.020;6.738;2023-05-10T06:30:03;12.80;99.90
59075;DHT22;44860;53.020;6.738;2023-05-10T06:32:29;12.90;99.90
59075;DHT22;44860;53.020;6.738;2023-05-10T06:34:54;12.80;99.90
59075;DHT22;44860;53.020;6.738;2023-05-10T06:37:20;12.80;99.90
59075;DHT22;44860;53.020;6.738;2023-05-10T06:39:46;12.80;99.90
59075;DHT22;44860;53.020;6.738;2023-05-10T06:42:11;12.80;99.90
59075;DHT22;44860;53.020;6.738;2023-05-10T06:44:37;12.90;99.90
59075;DHT22;44860;53.020;6.738;2023-05-10T06:47:02;12.80;99.90
59075;DHT22;44860;53.020;6.738;2023-05-10T06:49:28;12.80;99.90
59075;DHT22;44860;53.020;6.738;2023-05-10T06:51:55;12.80;99.90
59075;DHT22;44860;53.020;6.738;2023-05-10T06:54:21;12.80;99.90
59075;DHT22;44860;53.020;6.738;2023-05-10T06:56:46;12.90;99.90
59075;DHT22;44860;53.020;6.738;2023-05-10T06:59:12;12.80;99.90
59075;DHT22;44860;53.020;6.738;2023-05-10T07:01:39;12.80;99.90
59075;DHT22;44860;53.020;6.738;2023-05-10T07:04:05;12.80;99.90
59075;DHT22;44860;53.020;6.738;2023-05-10T07:06:30;12.80;99.90
59075;DHT22;44860;53.020;6.738;2023-05-10T07:08:56;12.80;99.90
59075;DHT22;44860;53.020;6.738;2023-05-10T07:11:22;12.80;99.90
59075;DHT22;44860;53.020;6.738;2023-05-10T07:13:48;12.80;99.90
59075;DHT22;44860;53.020;6.738;2023-05-10T07:16:13;12.80;99.90
59075;DHT22;44860;53.020;6.738;2023-05-10T07:18:39;12.80;99.90
59075;DHT22;44860;53.020;6.738;2023-05-10T07:21:05;12.80;99.90
59075;DHT22;44860;53.020;6.738;2023-05-10T07:23:30;12.80;99.90
59075;DHT22;44860;53.020;6.738;2023-05-10T07:25:56;12.80;99.90
59075;DHT22;44860;53.020;6.738;2023-05-10T07:28:23;12.80;99.90
59075;DHT22;44860;53.020;6.738;2023-05-10T07:30:50;12.80;99.90
59075;DHT22;44860;53.020;6.738;2023-05-10T07:33:16;12.80;99.90
59075;DHT22;44860;53.020;6.738;2023-05-10T07:35:42;12.80;99.90
59075;DHT22;44860;53.020;6.738;2023-05-10T07:38:07;12.80;99.90
59075;DHT22;44860;53.020;6.738;2023-05-10T07:40:33;12.80;99.90
59075;DHT22;44860;53.020;6.738;2023-05-10T07:42:59;12.90;99.90
59075;DHT22;44860;53.020;6.738;2023-05-10T07:45:28;12.90;99.90
59075;DHT22;44860;53.020;6.738;2023-05-10T07:47:54;12.90;99.90
59075;DHT22;44860;53.020;6.738;2023-05-10T07:50:19;12.90;99.90
59075;DHT22;44860;53.020;6.738;2023-05-10T07:52:46;12.90;99.90
59075;DHT22;44860;53.020;6.738;2023-05-10T07:55:12;12.90;99.90
59075;DHT22;44860;53.020;6.738;2023-05-10T07:57:38;12.90;99.90
59075;DHT22;44860;53.020;6.738;2023-05-10T08:00:05;12.90;99.90
59075;DHT22;44860;53.020;6.738;2023-05-10T08:02:30;12.90;99.90
59075;DHT22;44860;53.020;6.738;2023-05-10T08:04:56;13.00;99.90
59075;DHT22;44860;53.020;6.738;2023-05-10T08:07:24;13.00;99.90
59075;DHT22;44860;53.020;6.738;2023-05-10T08:09:50;13.00;99.90
59075;DHT22;44860;53.020;6.738;2023-05-10T08:12:16;13.00;99.90
59075;DHT22;44860;53.020;6.738;2023-05-10T08:14:41;13.00;99.90
59075;DHT22;44860;53.020;6.738;2023-05-10T08:17:07;13.10;99.90
59075;DHT22;44860;53.020;6.738;2023-05-10T08:19:32;13.00;99.90
59075;DHT22;44860;53.020;6.738;2023-05-10T08:21:58;13.00;99.90
59075;DHT22;44860;53.020;6.738;2023-05-10T08:24:24;13.00;99.90
59075;DHT22;44860;53.020;6.738;2023-05-10T08:26:49;13.00;99.90
59075;DHT22;44860;53.020;6.738;2023-05-10T08:29:15;13.00;99.90
59075;DHT22;44860;53.020;6.738;2023-05-10T08:31:41;13.00;99.90
59075;DHT22;44860;53.020;6.738;2023-05-10T08:34:07;13.00;99.90
59075;DHT22;44860;53.020;6.738;2023-05-10T08:36:32;13.00;99.90
59075;DHT22;44860;53.020;6.738;2023-05-10T08:38:58;13.00;99.90
59075;DHT22;44860;53.020;6.738;2023-05-10T08:41:24;13.00;99.90
59075;DHT22;44860;53.020;6.738;2023-05-10T08:43:52;13.00;99.90
59075;DHT22;44860;53.020;6.738;2023-05-10T08:46:19;13.00;99.90
59075;DHT22;44860;53.020;6.738;2023-05-10T08:48:46;13.00;99.90
59075;DHT22;44860;53.020;6.738;2023-05-10T08:51:14;13.00;99.90
59075;DHT22;44860;53.020;6.738;2023-05-10T08:53:40;13.00;99.90
59075;DHT22;44860;53.020;6.738;2023-05-10T08:56:06;13.00;99.90
59075;DHT22;44860;53.020;6.738;2023-05-10T08:58:32;13.00;99.90
59075;DHT22;44860;53.020;6.738;2023-05-10T09:00:59;13.00;99.90
59075;DHT22;44860;53.020;6.738;2023-05-10T09:03:24;13.00;99.90
59075;DHT22;44860;53.020;6.738;2023-05-10T09:05:50;13.00;99.90
59075;DHT22;44860;53.020;6.738;2023-05-10T09:08:17;13.00;99.90
59075;DHT22;44860;53.020;6.738;2023-05-10T09:10:46;13.00;99.90
59075;DHT22;44860;53.020;6.738;2023-05-10T09:13:14;13.00;99.90
59075;DHT22;44860;53.020;6.738;2023-05-10T09:15:44;13.00;99.90
59075;DHT22;44860;53.020;6.738;2023-05-10T09:18:10;13.10;99.90
59075;DHT22;44860;53.020;6.738;2023-05-10T09:20:36;13.10;99.90
59075;DHT22;44860;53.020;6.738;2023-05-10T09:23:02;13.10;99.90
59075;DHT22;44860;53.020;6.738;2023-05-10T09:25:27;13.10;99.90
59075;DHT22;44860;53.020;6.738;2023-05-10T09:27:53;13.10;99.90
59075;DHT22;44860;53.020;6.738;2023-05-10T09:30:24;13.10;99.90
59075;DHT22;44860;53.020;6.738;2023-05-10T09:32:51;13.20;99.90
59075;DHT22;44860;53.020;6.738;2023-05-10T09:35:20;13.20;99.90
59075;DHT22;44860;53.020;6.738;2023-05-10T09:37:50;13.20;99.90
59075;DHT22;44860;53.020;6.738;2023-05-10T09:40:18;13.20;99.90
59075;DHT22;44860;53.020;6.738;2023-05-10T09:45:23;13.30;99.90
59075;DHT22;44860;53.020;6.738;2023-05-10T09:47:49;13.40;99.90
59075;DHT22;44860;53.020;6.738;2023-05-10T09:50:15;13.40;99.90
59075;DHT22;44860;53.020;6.738;2023-05-10T09:52:49;13.50;99.90
59075;DHT22;44860;53.020;6.738;2023-05-10T09:55:17;13.50;99.90
59075;DHT22;44860;53.020;6.738;2023-05-10T09:57:44;13.50;99.90
59075;DHT22;44860;53.020;6.738;2023-05-10T10:00:10;13.60;99.90
59075;DHT22;44860;53.020;6.738;2023-05-10T10:02:35;13.60;99.90
59075;DHT22;44860;53.020;6.738;2023-05-10T10:05:02;13.60;99.90
59075;DHT22;44860;53.020;6.738;2023-05-10T10:07:31;13.60;99.90
59075;DHT22;44860;53.020;6.738;2023-05-10T10:09:58;13.70;99.90
59075;DHT22;44860;53.020;6.738;2023-05-10T10:12:25;13.70;99.90
59075;DHT22;44860;53.020;6.738;2023-05-10T10:14:51;13.70;99.90
59075;DHT22;44860;53.020;6.738;2023-05-10T10:17:17;13.80;99.90
59075;DHT22;44860;53.020;6.738;2023-05-10T10:19:43;13.80;99.90
59075;DHT22;44860;53.020;6.738;2023-05-10T10:22:10;13.80;99.90
59075;DHT22;44860;53.020;6.738;2023-05-10T10:24:40;13.80;99.90
59075;DHT22;44860;53.020;6.738;2023-05-10T10:27:28;13.80;99.90
59075;DHT22;44860;53.020;6.738;2023-05-10T10:30:04;13.90;99.90
59075;DHT22;44860;53.020;6.738;2023-05-10T10:35:34;13.90;99.90
59075;DHT22;44860;53.020;6.738;2023-05-10T10:38:00;13.90;99.90
59075;DHT22;44860;53.020;6.738;2023-05-10T10:40:33;13.90;99.90
59075;DHT22;44860;53.020;6.738;2023-05-10T10:45:43;13.90;99.90
59075;DHT22;44860;53.020;6.738;2023-05-10T10:48:23;13.90;99.90
59075;DHT22;44860;53.020;6.738;2023-05-10T10:50:56;14.00;99.90
59075;DHT22;44860;53.020;6.738;2023-05-10T10:53:26;14.00;99.90
59075;DHT22;44860;53.020;6.738;2023-05-10T10:56:06;14.00;99.90
59075;DHT22;44860;53.020;6.738;2023-05-10T10:58:39;14.00;99.90
59075;DHT22;44860;53.020;6.738;2023-05-10T11:01:16;14.00;99.90
59075;DHT22;44860;53.020;6.738;2023-05-10T11:06:30;14.00;99.90
59075;DHT22;44860;53.020;6.738;2023-05-10T11:09:10;14.10;99.90
59075;DHT22;44860;53.020;6.738;2023-05-10T11:11:48;14.10;99.90
59075;DHT22;44860;53.020;6.738;2023-05-10T11:14:20;14.10;99.90
59075;DHT22;44860;53.020;6.738;2023-05-10T11:16:46;14.10;99.90
59075;DHT22;44860;53.020;6.738;2023-05-10T11:19:13;14.10;99.90
59075;DHT22;44860;53.020;6.738;2023-05-10T11:24:30;14.10;99.90
59075;DHT22;44860;53.020;6.738;2023-05-10T11:26:56;14.10;99.90
59075;DHT22;44860;53.020;6.738;2023-05-10T11:29:22;14.10;99.90
59075;DHT22;44860;53.020;6.738;2023-05-10T11:31:48;14.20;99.90
59075;DHT22;44860;53.020;6.738;2023-05-10T11:34:28;14.10;99.90
59075;DHT22;44860;53.020;6.738;2023-05-10T11:36:56;14.10;99.90
59075;DHT22;44860;53.020;6.738;2023-05-10T11:39:26;14.20;99.90
59075;DHT22;44860;53.020;6.738;2023-05-10T11:41:52;14.10;99.90
59075;DHT22;44860;53.020;6.738;2023-05-10T11:44:18;14.20;99.90
59075;DHT22;44860;53.020;6.738;2023-05-10T11:46:44;14.10;99.90
59075;DHT22;44860;53.020;6.738;2023-05-10T11:49:10;14.20;99.90
59075;DHT22;44860;53.020;6.738;2023-05-10T11:51:36;14.20;99.90
59075;DHT22;44860;53.020;6.738;2023-05-10T11:54:06;14.20;99.90
59075;DHT22;44860;53.020;6.738;2023-05-10T11:56:32;14.20;99.90
59075;DHT22;44860;53.020;6.738;2023-05-10T11:58:58;14.20;99.90
59075;DHT22;44860;53.020;6.738;2023-05-10T12:01:26;14.20;99.90
59075;DHT22;44860;53.020;6.738;2023-05-10T12:03:53;14.30;99.90
59075;DHT22;44860;53.020;6.738;2023-05-10T12:06:20;14.30;99.90
59075;DHT22;44860;53.020;6.738;2023-05-10T12:08:47;14.30;99.90
59075;DHT22;44860;53.020;6.738;2023-05-10T12:11:13;14.30;99.90
59075;DHT22;44860;53.020;6.738;2023-05-10T12:13:42;14.30;99.90
59075;DHT22;44860;53.020;6.738;2023-05-10T12:16:18;14.40;99.90
59075;DHT22;44860;53.020;6.738;2023-05-10T12:18:45;14.40;99.90
59075;DHT22;44860;53.020;6.738;2023-05-10T12:21:13;14.40;99.90
59075;DHT22;44860;53.020;6.738;2023-05-10T12:23:40;14.40;99.90
59075;DHT22;44860;53.020;6.738;2023-05-10T12:26:10;14.40;99.90
59075;DHT22;44860;53.020;6.738;2023-05-10T12:28:36;14.40;99.90
59075;DHT22;44860;53.020;6.738;2023-05-10T12:31:02;14.40;99.90
59075;DHT22;44860;53.020;6.738;2023-05-10T12:33:36;14.40;99.90
59075;DHT22;44860;53.020;6.738;2023-05-10T12:36:04;14.40;99.90
59075;DHT22;44860;53.020;6.738;2023-05-10T12:38:43;14.40;99.90
59075;DHT22;44860;53.020;6.738;2023-05-10T12:41:11;14.30;99.90
59075;DHT22;44860;53.020;6.738;2023-05-10T12:43:37;14.30;99.90
59075;DHT22;44860;53.020;6.738;2023-05-10T12:46:11;14.30;99.90
59075;DHT22;44860;53.020;6.738;2023-05-10T12:48:38;14.30;99.90
59075;DHT22;44860;53.020;6.738;2023-05-10T12:51:05;14.40;99.90
59075;DHT22;44860;53.020;6.738;2023-05-10T12:53:31;14.40;99.90
59075;DHT22;44860;53.020;6.738;2023-05-10T12:55:57;14.40;99.90
59075;DHT22;44860;53.020;6.738;2023-05-10T12:58:23;14.40;99.90
59075;DHT22;44860;53.020;6.738;2023-05-10T13:00:50;14.50;99.90
59075;DHT22;44860;53.020;6.738;2023-05-10T13:03:17;14.50;99.90
59075;DHT22;44860;53.020;6.738;2023-05-10T13:05:43;14.50;99.90
59075;DHT22;44860;53.020;6.738;2023-05-10T13:08:08;14.50;99.90
59075;DHT22;44860;53.020;6.738;2023-05-10T13:10:34;14.60;99.90
59075;DHT22;44860;53.020;6.738;2023-05-10T13:13:00;14.60;99.90
59075;DHT22;44860;53.020;6.738;2023-05-10T13:15:26;14.60;99.90
59075;DHT22;44860;53.020;6.738;2023-05-10T13:17:53;14.60;99.90
59075;DHT22;44860;53.020;6.738;2023-05-10T13:20:19;14.60;99.90
59075;DHT22;44860;53.020;6.738;2023-05-10T13:22:45;14.60;99.90
59075;DHT22;44860;53.020;6.738;2023-05-10T13:25:11;14.60;99.90
59075;DHT22;44860;53.020;6.738;2023-05-10T13:27:38;14.60;99.90
59075;DHT22;44860;53.020;6.738;2023-05-10T13:30:05;14.60;99.90
59075;DHT22;44860;53.020;6.738;2023-05-10T13:32:30;14.70;99.90
59075;DHT22;44860;53.020;6.738;2023-05-10T13:34:56;14.70;99.90
59075;DHT22;44860;53.020;6.738;2023-05-10T13:37:22;14.70;99.90
59075;DHT22;44860;53.020;6.738;2023-05-10T13:39:48;14.70;99.90
59075;DHT22;44860;53.020;6.738;2023-05-10T13:42:14;14.70;99.90
59075;DHT22;44860;53.020;6.738;2023-05-10T13:44:39;14.80;99.90
59075;DHT22;44860;53.020;6.738;2023-05-10T13:47:05;14.80;99.90
59075;DHT22;44860;53.020;6.738;2023-05-10T13:49:31;14.80;99.90
59075;DHT22;44860;53.020;6.738;2023-05-10T13:51:57;14.80;99.90
59075;DHT22;44860;53.020;6.738;2023-05-10T13:54:23;14.80;99.90
59075;DHT22;44860;53.020;6.738;2023-05-10T13:56:49;14.80;99.90
59075;DHT22;44860;53.020;6.738;2023-05-10T13:59:15;14.80;99.90
59075;DHT22;44860;53.020;6.738;2023-05-10T14:01:41;14.80;99.90
59075;DHT22;44860;53.020;6.738;2023-05-10T14:04:08;14.80;99.90
59075;DHT22;44860;53.020;6.738;2023-05-10T14:06:36;14.80;99.90
59075;DHT22;44860;53.020;6.738;2023-05-10T14:09:02;14.80;99.90
59075;DHT22;44860;53.020;6.738;2023-05-10T14:11:28;14.80;99.90
59075;DHT22;44860;53.020;6.738;2023-05-10T14:13:54;14.80;99.90
59075;DHT22;44860;53.020;6.738;2023-05-10T14:16:20;14.90;99.90
59075;DHT22;44860;53.020;6.738;2023-05-10T14:18:46;14.90;99.90
59075;DHT22;44860;53.020;6.738;2023-05-10T14:21:12;14.90;99.90
59075;DHT22;44860;53.020;6.738;2023-05-10T14:23:38;14.90;99.90
59075;DHT22;44860;53.020;6.738;2023-05-10T14:26:03;14.90;99.90
59075;DHT22;44860;53.020;6.738;2023-05-10T14:28:29;15.00;99.90
59075;DHT22;44860;53.020;6.738;2023-05-10T14:30:55;15.00;99.90
59075;DHT22;44860;53.020;6.738;2023-05-10T14:33:20;15.00;99.90
59075;DHT22;44860;53.020;6.738;2023-05-10T14:35:47;15.00;99.90
59075;DHT22;44860;53.020;6.738;2023-05-10T14:38:13;15.00;99.90
59075;DHT22;44860;53.020;6.738;2023-05-10T14:40:39;15.00;99.90
59075;DHT22;44860;53.020;6.738;2023-05-10T14:43:04;15.00;99.90
59075;DHT22;44860;53.020;6.738;2023-05-10T14:45:30;15.00;99.90
59075;DHT22;44860;53.020;6.738;2023-05-10T14:47:57;15.00;99.90
59075;DHT22;44860;53.020;6.738;2023-05-10T14:50:23;15.00;99.90
59075;DHT22;44860;53.020;6.738;2023-05-10T14:52:48;15.00;99.90
59075;DHT22;44860;53.020;6.738;2023-05-10T14:55:15;15.00;99.90
59075;DHT22;44860;53.020;6.738;2023-05-10T14:57:40;14.90;99.90
59075;DHT22;44860;53.020;6.738;2023-05-10T15:00:06;14.90;99.90
59075;DHT22;44860;53.020;6.738;2023-05-10T15:02:32;14.90;99.90
59075;DHT22;44860;53.020;6.738;2023-05-10T15:04:58;14.90;99.90
59075;DHT22;44860;53.020;6.738;2023-05-10T15:07:24;14.90;99.90
59075;DHT22;44860;53.020;6.738;2023-05-10T15:09:52;14.90;99.90
59075;DHT22;44860;53.020;6.738;2023-05-10T15:12:19;14.90;99.90
59075;DHT22;44860;53.020;6.738;2023-05-10T15:14:45;14.90;99.90
59075;DHT22;44860;53.020;6.738;2023-05-10T15:17:11;14.90;99.90
59075;DHT22;44860;53.020;6.738;2023-05-10T15:19:37;15.00;99.90
59075;DHT22;44860;53.020;6.738;2023-05-10T15:22:04;15.00;99.90
59075;DHT22;44860;53.020;6.738;2023-05-10T15:24:29;15.00;99.90
59075;DHT22;44860;53.020;6.738;2023-05-10T15:26:55;15.00;99.90
59075;DHT22;44860;53.020;6.738;2023-05-10T15:29:21;15.00;99.90
59075;DHT22;44860;53.020;6.738;2023-05-10T15:31:47;15.00;99.90
59075;DHT22;44860;53.020;6.738;2023-05-10T15:34:13;15.00;99.90
59075;DHT22;44860;53.020;6.738;2023-05-10T15:36:39;15.00;99.90
59075;DHT22;44860;53.020;6.738;2023-05-10T15:39:04;15.00;99.90
59075;DHT22;44860;53.020;6.738;2023-05-10T15:41:30;15.00;99.90
59075;DHT22;44860;53.020;6.738;2023-05-10T15:43:57;15.00;99.90
59075;DHT22;44860;53.020;6.738;2023-05-10T15:46:25;15.00;99.90
59075;DHT22;44860;53.020;6.738;2023-05-10T15:48:51;15.00;99.90
59075;DHT22;44860;53.020;6.738;2023-05-10T15:51:16;15.10;99.90
59075;DHT22;44860;53.020;6.738;2023-05-10T15:53:42;15.10;99.90
59075;DHT22;44860;53.020;6.738;2023-05-10T15:56:08;15.10;99.90
59075;DHT22;44860;53.020;6.738;2023-05-10T15:58:33;15.10;99.90
59075;DHT22;44860;53.020;6.738;2023-05-10T16:00:59;15.10;99.90
59075;DHT22;44860;53.020;6.738;2023-05-10T16:03:25;15.10;99.90
59075;DHT22;44860;53.020;6.738;2023-05-10T16:05:50;15.10;99.90
59075;DHT22;44860;53.020;6.738;2023-05-10T16:08:16;15.20;99.90